sensor_id;sensor_type;location;lat;lon;timestamp;pressure;altitude;pressure_sealevel;temperature;humidity
39793;BME280;26080;42.264;24.536;2022-10-17T00:00:59;100717.69;;;5.55;100.00
39793;BME280;26080;42.264;24.536;2022-10-17T00:03:25;100740.22;;;5.62;100.00
39793;BME280;26080;42.264;24.536;2022-10-17T00:05:50;100746.31;;;5.47;100.00
39793;BME280;26080;42.264;24.536;2022-10-17T00:08:17;100755.06;;;5.25;100.00
39793;BME280;26080;42.264;24.536;2022-10-17T00:10:42;100752.44;;;5.20;100.00
39793;BME280;26080;42.264;24.536;2022-10-17T00:13:09;100749.03;;;5.04;100.00
39793;BME280;26080;42.264;24.536;2022-10-17T00:15:34;100741.28;;;4.86;100.00
39793;BME280;26080;42.264;24.536;2022-10-17T00:18:00;100749.06;;;4.86;100.00
39793;BME280;26080;42.264;24.536;2022-10-17T00:20:26;100723.13;;;4.66;100.00
39793;BME280;26080;42.264;24.536;2022-10-17T00:22:52;100739.53;;;4.76;100.00
39793;BME280;26080;42.264;24.536;2022-10-17T00:25:18;100733.50;;;4.62;100.00
39793;BME280;26080;42.264;24.536;2022-10-17T00:27:44;100737.81;;;4.70;100.00
39793;BME280;26080;42.264;24.536;2022-10-17T00:30:12;100745.59;;;4.86;100.00
39793;BME280;26080;42.264;24.536;2022-10-17T00:32:38;100749.94;;;4.94;100.00
39793;BME280;26080;42.264;24.536;2022-10-17T00:35:04;100742.13;;;4.90;100.00
39793;BME280;26080;42.264;24.536;2022-10-17T00:37:31;100745.56;;;4.92;100.00
39793;BME280;26080;42.264;24.536;2022-10-17T00:39:56;100740.41;;;4.95;100.00
39793;BME280;26080;42.264;24.536;2022-10-17T00:42:22;100739.53;;;4.97;100.00
39793;BME280;26080;42.264;24.536;2022-10-17T00:47:17;100728.28;;;4.79;100.00
39793;BME280;26080;42.264;24.536;2022-10-17T00:49:44;100751.66;;;4.97;100.00
39793;BME280;26080;42.264;24.536;2022-10-17T00:52:21;100755.09;;;4.97;100.00
39793;BME280;26080;42.264;24.536;2022-10-17T00:54:52;100756.81;;;4.92;100.00
39793;BME280;26080;42.264;24.536;2022-10-17T00:57:18;100759.44;;;4.86;100.00
39793;BME280;26080;42.264;24.536;2022-10-17T00:59:48;100750.78;;;4.80;100.00
39793;BME280;26080;42.264;24.536;2022-10-17T01:02:19;100754.25;;;4.71;100.00
39793;BME280;26080;42.264;24.536;2022-10-17T01:04:47;100749.06;;;4.69;100.00
39793;BME280;26080;42.264;24.536;2022-10-17T01:07:13;100749.94;;;4.58;100.00
39793;BME280;26080;42.264;24.536;2022-10-17T01:09:39;100745.63;;;4.55;100.00
39793;BME280;26080;42.264;24.536;2022-10-17T01:12:24;100704.09;;;4.20;100.00
39793;BME280;26080;42.264;24.536;2022-10-17T01:26:04;100763.75;;;4.44;100.00
39793;BME280;26080;42.264;24.536;2022-10-17T01:31:11;100762.03;;;4.43;100.00
39793;BME280;26080;42.264;24.536;2022-10-17T01:33:43;100760.31;;;4.39;100.00
39793;BME280;26080;42.264;24.536;2022-10-17T01:36:19;100754.25;;;4.39;100.00
39793;BME280;26080;42.264;24.536;2022-10-17T01:38:51;100733.47;;;4.24;100.00
39793;BME280;26080;42.264;24.536;2022-10-17T01:41:26;100761.19;;;4.43;100.00
39793;BME280;26080;42.264;24.536;2022-10-17T01:43:56;100756.84;;;4.31;100.00
39793;BME280;26080;42.264;24.536;2022-10-17T01:48:54;100748.19;;;4.29;100.00
39793;BME280;26080;42.264;24.536;2022-10-17T01:51:26;100760.31;;;4.42;100.00
39793;BME280;26080;42.264;24.536;2022-10-17T01:54:04;100749.06;;;4.39;100.00
39793;BME280;26080;42.264;24.536;2022-10-17T01:56:32;100752.53;;;4.47;100.00
39793;BME280;26080;42.264;24.536;2022-10-17T01:59:03;100723.97;;;4.12;100.00
39793;BME280;26080;42.264;24.536;2022-10-17T02:01:31;100757.66;;;4.24;100.00
39793;BME280;26080;42.264;24.536;2022-10-17T02:04:00;100719.59;;;3.96;100.00
39793;BME280;26080;42.264;24.536;2022-10-17T02:06:26;100760.28;;;4.33;100.00
39793;BME280;26080;42.264;24.536;2022-10-17T02:08:52;100760.25;;;4.24;100.00
39793;BME280;26080;42.264;24.536;2022-10-17T02:11:19;100730.88;;;4.11;100.00
39793;BME280;26080;42.264;24.536;2022-10-17T02:22:33;100780.19;;;4.33;100.00
39793;BME280;26080;42.264;24.536;2022-10-17T02:25:15;100776.72;;;4.32;100.00
39793;BME280;26080;42.264;24.536;2022-10-17T02:27:55;100778.44;;;4.32;100.00
39793;BME280;26080;42.264;24.536;2022-10-17T02:30:36;100781.00;;;4.18;100.00
39793;BME280;26080;42.264;24.536;2022-10-17T02:33:12;100781.84;;;4.08;100.00
39793;BME280;26080;42.264;24.536;2022-10-17T02:35:43;100758.44;;;3.77;100.00
39793;BME280;26080;42.264;24.536;2022-10-17T02:38:11;100794.78;;;3.97;100.00
39793;BME280;26080;42.264;24.536;2022-10-17T02:40:38;100796.50;;;3.94;100.00
39793;BME280;26080;42.264;24.536;2022-10-17T02:43:05;100801.63;;;3.83;100.00
39793;BME280;26080;42.264;24.536;2022-10-17T02:45:32;100811.94;;;3.68;100.00
39793;BME280;26080;42.264;24.536;2022-10-17T02:53:59;100813.66;;;3.67;100.00
39793;BME280;26080;42.264;24.536;2022-10-17T02:56:33;100791.19;;;3.60;100.00
39793;BME280;26080;42.264;24.536;2022-10-17T02:59:02;100805.06;;;3.71;100.00
39793;BME280;26080;42.264;24.536;2022-10-17T03:01:29;100816.25;;;3.69;100.00
39793;BME280;26080;42.264;24.536;2022-10-17T03:04:12;100813.59;;;3.52;100.00
39793;BME280;26080;42.264;24.536;2022-10-17T03:06:40;100817.81;;;3.36;100.00
39793;BME280;26080;42.264;24.536;2022-10-17T03:09:05;100822.91;;;3.24;100.00
39793;BME280;26080;42.264;24.536;2022-10-17T03:11:31;100815.38;;;3.59;100.00
39793;BME280;26080;42.264;24.536;2022-10-17T03:13:56;100812.63;;;3.38;100.00
39793;BME280;26080;42.264;24.536;2022-10-17T03:16:22;100816.16;;;3.49;100.00
39793;BME280;26080;42.264;24.536;2022-10-17T03:18:47;100815.22;;;3.38;100.00
39793;BME280;26080;42.264;24.536;2022-10-17T03:21:13;100816.94;;;3.33;100.00
39793;BME280;26080;42.264;24.536;2022-10-17T03:23:38;100811.78;;;3.36;100.00
39793;BME280;26080;42.264;24.536;2022-10-17T03:26:08;100813.41;;;3.24;100.00
39793;BME280;26080;42.264;24.536;2022-10-17T03:28:34;100812.63;;;3.36;100.00
39793;BME280;26080;42.264;24.536;2022-10-17T03:31:05;100798.72;;;3.17;100.00
39793;BME280;26080;42.264;24.536;2022-10-17T03:33:31;100822.06;;;3.26;100.00
39793;BME280;26080;42.264;24.536;2022-10-17T03:35:56;100822.97;;;3.32;100.00
39793;BME280;26080;42.264;24.536;2022-10-17T03:38:22;100825.59;;;3.38;100.00
39793;BME280;26080;42.264;24.536;2022-10-17T03:40:54;100821.25;;;3.31;100.00
39793;BME280;26080;42.264;24.536;2022-10-17T03:43:20;100816.88;;;3.26;100.00
39793;BME280;26080;42.264;24.536;2022-10-17T03:45:45;100826.47;;;3.38;100.00
39793;BME280;26080;42.264;24.536;2022-10-17T03:48:11;100840.34;;;3.46;100.00
39793;BME280;26080;42.264;24.536;2022-10-17T03:50:36;100834.31;;;3.52;100.00
39793;BME280;26080;42.264;24.536;2022-10-17T03:53:01;100833.44;;;3.48;100.00
39793;BME280;26080;42.264;24.536;2022-10-17T03:55:27;100836.81;;;3.41;100.00
39793;BME280;26080;42.264;24.536;2022-10-17T03:57:52;100833.44;;;3.50;100.00
39793;BME280;26080;42.264;24.536;2022-10-17T04:00:18;100840.34;;;3.52;100.00
39793;BME280;26080;42.264;24.536;2022-10-17T04:02:43;100786.56;;;3.09;100.00
39793;BME280;26080;42.264;24.536;2022-10-17T04:05:09;100827.38;;;3.48;100.00
39793;BME280;26080;42.264;24.536;2022-10-17T04:07:34;100832.63;;;3.60;100.00
39793;BME280;26080;42.264;24.536;2022-10-17T04:10:02;100834.44;;;3.70;100.00
39793;BME280;26080;42.264;24.536;2022-10-17T04:12:27;100830.78;;;3.41;100.00
39793;BME280;26080;42.264;24.536;2022-10-17T04:14:53;100847.16;;;3.34;100.00
39793;BME280;26080;42.264;24.536;2022-10-17T04:17:18;100834.09;;;3.17;100.00
39793;BME280;26080;42.264;24.536;2022-10-17T04:19:44;100829.72;;;3.08;100.00
39793;BME280;26080;42.264;24.536;2022-10-17T04:22:09;100834.91;;;3.14;100.00
39793;BME280;26080;42.264;24.536;2022-10-17T04:24:35;100849.63;;;3.15;100.00
39793;BME280;26080;42.264;24.536;2022-10-17T04:27:00;100850.41;;;3.08;100.00
39793;BME280;26080;42.264;24.536;2022-10-17T04:29:26;100849.44;;;2.94;100.00
39793;BME280;26080;42.264;24.536;2022-10-17T04:31:51;100851.03;;;2.77;100.00
39793;BME280;26080;42.264;24.536;2022-10-17T04:34:17;100852.69;;;2.72;100.00
39793;BME280;26080;42.264;24.536;2022-10-17T04:36:42;100844.00;;;2.65;100.00
39793;BME280;26080;42.264;24.536;2022-10-17T04:39:08;100840.53;;;2.61;100.00
39793;BME280;26080;42.264;24.536;2022-10-17T04:41:33;100843.06;;;2.55;100.00
39793;BME280;26080;42.264;24.536;2022-10-17T04:43:59;100843.06;;;2.57;100.00
39793;BME280;26080;42.264;24.536;2022-10-17T04:46:24;100858.53;;;2.51;100.00
39793;BME280;26080;42.264;24.536;2022-10-17T04:48:49;100858.66;;;2.63;100.00
39793;BME280;26080;42.264;24.536;2022-10-17T04:51:17;100867.44;;;2.79;100.00
39793;BME280;26080;42.264;24.536;2022-10-17T04:53:43;100871.84;;;2.92;100.00
39793;BME280;26080;42.264;24.536;2022-10-17T04:56:17;100871.97;;;3.07;100.00
39793;BME280;26080;42.264;24.536;2022-10-17T04:58:43;100872.88;;;3.11;100.00
39793;BME280;26080;42.264;24.536;2022-10-17T05:01:12;100872.84;;;3.05;100.00
39793;BME280;26080;42.264;24.536;2022-10-17T05:03:38;100878.78;;;2.94;100.00
39793;BME280;26080;42.264;24.536;2022-10-17T05:06:05;100887.41;;;2.96;100.00
39793;BME280;26080;42.264;24.536;2022-10-17T05:08:31;100877.94;;;3.00;100.00
39793;BME280;26080;42.264;24.536;2022-10-17T05:10:57;100886.63;;;3.05;100.00
39793;BME280;26080;42.264;24.536;2022-10-17T05:13:22;100885.81;;;3.12;100.00
39793;BME280;26080;42.264;24.536;2022-10-17T05:15:47;100872.75;;;2.98;100.00
39793;BME280;26080;42.264;24.536;2022-10-17T05:18:13;100873.84;;;3.23;100.00
39793;BME280;26080;42.264;24.536;2022-10-17T05:20:38;100892.13;;;3.45;100.00
39793;BME280;26080;42.264;24.536;2022-10-17T05:23:04;100904.91;;;3.26;100.00
39793;BME280;26080;42.264;24.536;2022-10-17T05:25:29;100916.13;;;3.25;100.00
39793;BME280;26080;42.264;24.536;2022-10-17T05:27:54;100922.25;;;3.34;100.00
39793;BME280;26080;42.264;24.536;2022-10-17T05:30:20;100922.34;;;3.46;100.00
39793;BME280;26080;42.264;24.536;2022-10-17T05:32:45;100912.00;;;3.49;100.00
39793;BME280;26080;42.264;24.536;2022-10-17T05:35:11;100912.94;;;3.59;100.00
39793;BME280;26080;42.264;24.536;2022-10-17T05:37:36;100921.66;;;3.73;100.00
39793;BME280;26080;42.264;24.536;2022-10-17T05:40:03;100928.59;;;3.78;100.00
39793;BME280;26080;42.264;24.536;2022-10-17T05:42:28;100930.41;;;3.89;100.00
39793;BME280;26080;42.264;24.536;2022-10-17T05:44:54;100927.94;;;4.14;100.00
39793;BME280;26080;42.264;24.536;2022-10-17T05:47:19;100921.84;;;4.06;100.00
39793;BME280;26080;42.264;24.536;2022-10-17T05:49:45;100936.53;;;4.03;100.00
39793;BME280;26080;42.264;24.536;2022-10-17T05:52:10;100946.09;;;4.18;100.00
39793;BME280;26080;42.264;24.536;2022-10-17T05:54:35;100948.75;;;4.28;100.00
39793;BME280;26080;42.264;24.536;2022-10-17T05:57:01;100953.97;;;4.37;100.00
39793;BME280;26080;42.264;24.536;2022-10-17T05:59:26;100954.06;;;4.54;100.00
39793;BME280;26080;42.264;24.536;2022-10-17T06:01:52;100962.72;;;4.64;100.00
39793;BME280;26080;42.264;24.536;2022-10-17T06:04:18;100947.19;;;4.67;100.00
39793;BME280;26080;42.264;24.536;2022-10-17T06:06:45;100919.47;;;4.66;100.00
39793;BME280;26080;42.264;24.536;2022-10-17T06:09:10;100957.66;;;5.10;100.00
39793;BME280;26080;42.264;24.536;2022-10-17T06:11:36;100949.00;;;5.23;100.00
39793;BME280;26080;42.264;24.536;2022-10-17T06:14:01;100948.16;;;5.38;100.00
39793;BME280;26080;42.264;24.536;2022-10-17T06:16:27;100951.59;;;5.58;100.00
39793;BME280;26080;42.264;24.536;2022-10-17T06:18:52;100955.03;;;5.75;100.00
39793;BME280;26080;42.264;24.536;2022-10-17T06:21:22;100959.34;;;5.99;100.00
39793;BME280;26080;42.264;24.536;2022-10-17T06:23:48;100938.53;;;6.02;100.00
39793;BME280;26080;42.264;24.536;2022-10-17T06:26:13;100966.22;;;6.29;100.00
39793;BME280;26080;42.264;24.536;2022-10-17T06:28:39;100972.22;;;6.43;100.00
39793;BME280;26080;42.264;24.536;2022-10-17T06:31:09;100980.03;;;6.51;100.00
39793;BME280;26080;42.264;24.536;2022-10-17T06:33:35;100986.94;;;6.53;100.00
39793;BME280;26080;42.264;24.536;2022-10-17T06:36:01;100983.34;;;6.80;100.00
39793;BME280;26080;42.264;24.536;2022-10-17T06:38:26;100991.94;;;6.95;100.00
39793;BME280;26080;42.264;24.536;2022-10-17T06:40:52;100984.09;;;7.02;100.00
39793;BME280;26080;42.264;24.536;2022-10-17T06:43:22;100967.59;;;7.05;100.00
39793;BME280;26080;42.264;24.536;2022-10-17T06:45:47;100984.75;;;7.33;100.00
39793;BME280;26080;42.264;24.536;2022-10-17T06:48:13;100995.13;;;7.39;100.00
39793;BME280;26080;42.264;24.536;2022-10-17T06:50:38;100995.06;;;7.49;100.00
39793;BME280;26080;42.264;24.536;2022-10-17T06:53:04;100989.81;;;7.55;100.00
39793;BME280;26080;42.264;24.536;2022-10-17T06:55:30;100971.56;;;7.53;100.00
39793;BME280;26080;42.264;24.536;2022-10-17T06:57:56;100958.41;;;7.70;100.00
39793;BME280;26080;42.264;24.536;2022-10-17T07:00:22;100991.09;;;8.03;100.00
39793;BME280;26080;42.264;24.536;2022-10-17T07:02:48;100992.72;;;8.15;100.00
39793;BME280;26080;42.264;24.536;2022-10-17T07:05:13;101000.38;;;8.31;100.00
39793;BME280;26080;42.264;24.536;2022-10-17T07:07:39;101002.06;;;8.39;100.00
39793;BME280;26080;42.264;24.536;2022-10-17T07:10:04;101001.22;;;8.38;100.00
39793;BME280;26080;42.264;24.536;2022-10-17T07:12:33;101001.03;;;8.53;100.00
39793;BME280;26080;42.264;24.536;2022-10-17T07:14:59;101002.56;;;8.70;100.00
39793;BME280;26080;42.264;24.536;2022-10-17T07:17:24;101008.50;;;8.82;100.00
39793;BME280;26080;42.264;24.536;2022-10-17T07:19:50;101011.84;;;8.94;100.00
39793;BME280;26080;42.264;24.536;2022-10-17T07:22:15;101005.53;;;9.08;100.00
39793;BME280;26080;42.264;24.536;2022-10-17T07:24:40;100988.19;;;9.03;100.00
39793;BME280;26080;42.264;24.536;2022-10-17T07:27:06;100988.75;;;9.25;100.00
39793;BME280;26080;42.264;24.536;2022-10-17T07:29:31;100999.91;;;9.36;100.00
39793;BME280;26080;42.264;24.536;2022-10-17T07:31:57;101004.09;;;9.44;100.00
39793;BME280;26080;42.264;24.536;2022-10-17T07:34:22;101008.28;;;9.56;100.00
39793;BME280;26080;42.264;24.536;2022-10-17T07:36:52;101001.06;;;9.70;100.00
39793;BME280;26080;42.264;24.536;2022-10-17T07:39:18;101009.56;;;9.85;100.00
39793;BME280;26080;42.264;24.536;2022-10-17T07:41:43;101008.44;;;9.98;100.00
39793;BME280;26080;42.264;24.536;2022-10-17T07:44:08;101010.84;;;10.10;100.00
39793;BME280;26080;42.264;24.536;2022-10-17T07:46:34;101007.19;;;10.20;100.00
39793;BME280;26080;42.264;24.536;2022-10-17T07:48:59;101011.47;;;10.26;100.00
39793;BME280;26080;42.264;24.536;2022-10-17T07:51:25;101013.09;;;10.33;100.00
39793;BME280;26080;42.264;24.536;2022-10-17T07:53:52;101011.09;;;10.46;100.00
39793;BME280;26080;42.264;24.536;2022-10-17T07:56:17;101007.50;;;10.50;100.00
39793;BME280;26080;42.264;24.536;2022-10-17T07:58:43;101004.81;;;10.53;100.00
39793;BME280;26080;42.264;24.536;2022-10-17T08:01:10;101002.06;;;10.60;100.00
39793;BME280;26080;42.264;24.536;2022-10-17T08:03:40;100993.91;;;10.74;100.00
39793;BME280;26080;42.264;24.536;2022-10-17T08:06:06;100996.34;;;10.83;100.00
39793;BME280;26080;42.264;24.536;2022-10-17T08:08:31;100997.97;;;10.89;100.00
39793;BME280;26080;42.264;24.536;2022-10-17T08:11:02;100993.44;;;10.95;100.00
39793;BME280;26080;42.264;24.536;2022-10-17T08:13:28;100995.81;;;11.06;100.00
39793;BME280;26080;42.264;24.536;2022-10-17T08:15:58;100993.13;;;11.11;100.00
39793;BME280;26080;42.264;24.536;2022-10-17T08:18:23;100995.41;;;11.26;100.00
39793;BME280;26080;42.264;24.536;2022-10-17T08:20:49;100995.94;;;11.40;100.00
39793;BME280;26080;42.264;24.536;2022-10-17T08:23:14;100995.63;;;11.52;100.00
39793;BME280;26080;42.264;24.536;2022-10-17T08:25:39;100999.53;;;11.72;100.00
39793;BME280;26080;42.264;24.536;2022-10-17T08:28:05;100994.97;;;11.78;100.00
39793;BME280;26080;42.264;24.536;2022-10-17T08:30:31;100996.53;;;11.87;100.00
39793;BME280;26080;42.264;24.536;2022-10-17T08:32:56;100997.25;;;11.94;100.00
39793;BME280;26080;42.264;24.536;2022-10-17T08:35:22;100994.09;;;12.13;100.00
39793;BME280;26080;42.264;24.536;2022-10-17T08:37:48;100995.56;;;12.24;100.00
39793;BME280;26080;42.264;24.536;2022-10-17T08:40:25;100996.06;;;12.38;100.00
39793;BME280;26080;42.264;24.536;2022-10-17T08:45:26;101000.84;;;12.55;100.00
39793;BME280;26080;42.264;24.536;2022-10-17T08:47:58;100994.53;;;12.60;100.00
39793;BME280;26080;42.264;24.536;2022-10-17T08:55:52;101000.22;;;12.76;100.00
39793;BME280;26080;42.264;24.536;2022-10-17T08:58:23;100992.28;;;12.78;100.00
39793;BME280;26080;42.264;24.536;2022-10-17T09:01:11;100996.53;;;12.82;100.00
39793;BME280;26080;42.264;24.536;2022-10-17T09:03:42;100988.69;;;13.10;100.00
39793;BME280;26080;42.264;24.536;2022-10-17T09:11:33;100986.88;;;13.40;100.00
39793;BME280;26080;42.264;24.536;2022-10-17T09:17:28;100980.81;;;13.64;100.00
39793;BME280;26080;42.264;24.536;2022-10-17T09:20:09;100982.44;;;13.68;100.00
39793;BME280;26080;42.264;24.536;2022-10-17T09:22:48;100961.06;;;13.77;100.00
39793;BME280;26080;42.264;24.536;2022-10-17T09:25:20;100974.94;;;13.82;100.00
39793;BME280;26080;42.264;24.536;2022-10-17T09:28:09;100976.44;;;13.89;100.00
39793;BME280;26080;42.264;24.536;2022-10-17T09:30:41;100976.84;;;14.04;97.25
39793;BME280;26080;42.264;24.536;2022-10-17T09:33:16;100977.56;;;14.07;96.13
39793;BME280;26080;42.264;24.536;2022-10-17T09:35:42;100973.13;;;14.09;95.63
39793;BME280;26080;42.264;24.536;2022-10-17T09:38:15;100973.06;;;14.11;95.63
39793;BME280;26080;42.264;24.536;2022-10-17T09:40:41;100963.00;;;14.22;92.17
39793;BME280;26080;42.264;24.536;2022-10-17T09:43:06;100965.19;;;14.34;88.75
39793;BME280;26080;42.264;24.536;2022-10-17T09:45:40;100963.97;;;14.44;89.80
39793;BME280;26080;42.264;24.536;2022-10-17T09:51:12;100965.91;;;14.63;88.26
39793;BME280;26080;42.264;24.536;2022-10-17T09:53:41;100962.31;;;14.65;84.99
39793;BME280;26080;42.264;24.536;2022-10-17T09:56:13;100948.97;;;14.70;84.58
39793;BME280;26080;42.264;24.536;2022-10-17T10:01:29;100949.03;;;14.90;85.31
39793;BME280;26080;42.264;24.536;2022-10-17T10:06:33;100907.03;;;14.86;82.01
39793;BME280;26080;42.264;24.536;2022-10-17T10:08:58;100945.31;;;15.18;83.59
39793;BME280;26080;42.264;24.536;2022-10-17T10:16:44;100907.16;;;15.26;81.42
39793;BME280;26080;42.264;24.536;2022-10-17T10:19:35;100935.59;;;15.40;81.08
39793;BME280;26080;42.264;24.536;2022-10-17T10:22:15;100923.69;;;15.30;79.63
39793;BME280;26080;42.264;24.536;2022-10-17T10:24:41;100920.00;;;15.34;78.73
39793;BME280;26080;42.264;24.536;2022-10-17T10:27:12;100916.22;;;15.41;77.21
39793;BME280;26080;42.264;24.536;2022-10-17T10:29:50;100912.50;;;15.45;77.65
39793;BME280;26080;42.264;24.536;2022-10-17T10:32:32;100908.28;;;15.63;74.48
39793;BME280;26080;42.264;24.536;2022-10-17T10:35:18;100904.66;;;15.65;73.68
39793;BME280;26080;42.264;24.536;2022-10-17T10:37:48;100894.56;;;15.53;76.81
39793;BME280;26080;42.264;24.536;2022-10-17T10:40:23;100898.63;;;15.62;79.25
39793;BME280;26080;42.264;24.536;2022-10-17T10:42:53;100894.94;;;15.66;77.09
39793;BME280;26080;42.264;24.536;2022-10-17T10:47:58;100892.50;;;15.82;71.82
39793;BME280;26080;42.264;24.536;2022-10-17T10:50:29;100891.34;;;15.87;71.53
39793;BME280;26080;42.264;24.536;2022-10-17T10:56:15;100884.81;;;15.96;72.86
39793;BME280;26080;42.264;24.536;2022-10-17T11:06:40;100860.34;;;16.11;71.31
39793;BME280;26080;42.264;24.536;2022-10-17T11:09:23;100869.72;;;16.18;71.21
39793;BME280;26080;42.264;24.536;2022-10-17T11:12:12;100857.50;;;16.35;67.30
39793;BME280;26080;42.264;24.536;2022-10-17T11:20:10;100852.44;;;16.49;68.96
39793;BME280;26080;42.264;24.536;2022-10-17T11:22:43;100847.78;;;16.54;65.45
39793;BME280;26080;42.264;24.536;2022-10-17T11:27:36;100832.97;;;16.69;65.23
39793;BME280;26080;42.264;24.536;2022-10-17T11:30:03;100840.19;;;16.65;63.17
39793;BME280;26080;42.264;24.536;2022-10-17T11:32:35;100829.31;;;16.71;59.02
39793;BME280;26080;42.264;24.536;2022-10-17T11:37:38;100825.78;;;16.72;63.99
39793;BME280;26080;42.264;24.536;2022-10-17T11:40:15;100814.53;;;16.67;55.91
39793;BME280;26080;42.264;24.536;2022-10-17T11:42:52;100817.19;;;16.67;58.00
39793;BME280;26080;42.264;24.536;2022-10-17T11:45:23;100814.47;;;16.69;58.60
39793;BME280;26080;42.264;24.536;2022-10-17T11:47:57;100808.03;;;16.74;60.33
39793;BME280;26080;42.264;24.536;2022-10-17T11:50:33;100807.88;;;16.77;59.99
39793;BME280;26080;42.264;24.536;2022-10-17T11:53:23;100795.59;;;16.76;55.33
39793;BME280;26080;42.264;24.536;2022-10-17T11:55:51;100801.50;;;16.81;57.65
39793;BME280;26080;42.264;24.536;2022-10-17T12:01:27;100795.91;;;16.87;56.38
39793;BME280;26080;42.264;24.536;2022-10-17T12:07:13;100780.50;;;16.96;54.90
39793;BME280;26080;42.264;24.536;2022-10-17T12:12:31;100781.44;;;17.12;57.97
39793;BME280;26080;42.264;24.536;2022-10-17T12:18:00;100781.56;;;17.26;58.62
39793;BME280;26080;42.264;24.536;2022-10-17T12:20:28;100781.06;;;17.20;55.32
39793;BME280;26080;42.264;24.536;2022-10-17T12:23:13;100766.81;;;17.05;55.16
39793;BME280;26080;42.264;24.536;2022-10-17T12:25:59;100786.59;;;17.15;58.37
39793;BME280;26080;42.264;24.536;2022-10-17T12:33:36;100782.69;;;17.22;54.45
39793;BME280;26080;42.264;24.536;2022-10-17T12:38:48;100787.69;;;17.28;54.93
39793;BME280;26080;42.264;24.536;2022-10-17T12:41:14;100780.72;;;17.43;55.83
39793;BME280;26080;42.264;24.536;2022-10-17T12:43:44;100775.94;;;17.50;55.28
39793;BME280;26080;42.264;24.536;2022-10-17T12:46:10;100777.81;;;17.47;52.55
39793;BME280;26080;42.264;24.536;2022-10-17T12:51:17;100773.00;;;17.38;53.45
39793;BME280;26080;42.264;24.536;2022-10-17T12:56:12;100768.72;;;17.36;53.68
39793;BME280;26080;42.264;24.536;2022-10-17T12:58:42;100771.28;;;17.37;55.58
39793;BME280;26080;42.264;24.536;2022-10-17T13:01:17;100771.00;;;17.43;50.74
39793;BME280;26080;42.264;24.536;2022-10-17T13:03:45;100767.41;;;17.44;51.81
39793;BME280;26080;42.264;24.536;2022-10-17T13:06:22;100756.19;;;17.39;52.58
39793;BME280;26080;42.264;24.536;2022-10-17T13:09:00;100769.72;;;17.51;51.47
39793;BME280;26080;42.264;24.536;2022-10-17T13:11:29;100775.00;;;17.51;54.40
39793;BME280;26080;42.264;24.536;2022-10-17T13:13:58;100772.19;;;17.54;52.35
39793;BME280;26080;42.264;24.536;2022-10-17T13:16:31;100778.91;;;17.61;52.21
39793;BME280;26080;42.264;24.536;2022-10-17T13:18:57;100772.56;;;17.63;51.15
39793;BME280;26080;42.264;24.536;2022-10-17T13:21:24;100771.53;;;17.66;52.15
39793;BME280;26080;42.264;24.536;2022-10-17T13:23:49;100775.91;;;17.67;51.35
39793;BME280;26080;42.264;24.536;2022-10-17T13:26:23;100780.84;;;17.57;51.13
39793;BME280;26080;42.264;24.536;2022-10-17T13:29:09;100772.31;;;17.68;48.42
39793;BME280;26080;42.264;24.536;2022-10-17T13:31:38;100779.75;;;17.61;50.57
39793;BME280;26080;42.264;24.536;2022-10-17T13:34:14;100777.28;;;17.58;48.97
39793;BME280;26080;42.264;24.536;2022-10-17T13:36:41;100744.22;;;17.32;50.18
39793;BME280;26080;42.264;24.536;2022-10-17T13:39:08;100773.06;;;17.54;48.11
39793;BME280;26080;42.264;24.536;2022-10-17T13:41:35;100770.94;;;17.61;51.73
39793;BME280;26080;42.264;24.536;2022-10-17T13:44:02;100773.78;;;17.58;50.43
39793;BME280;26080;42.264;24.536;2022-10-17T13:46:31;100763.66;;;17.48;51.51
39793;BME280;26080;42.264;24.536;2022-10-17T13:48:58;100776.72;;;17.52;52.01
39793;BME280;26080;42.264;24.536;2022-10-17T13:51:25;100771.44;;;17.52;52.62
39793;BME280;26080;42.264;24.536;2022-10-17T13:53:53;100775.09;;;17.49;50.57
39793;BME280;26080;42.264;24.536;2022-10-17T13:56:23;100773.47;;;17.46;49.39
39793;BME280;26080;42.264;24.536;2022-10-17T13:59:14;100748.19;;;17.24;51.54
39793;BME280;26080;42.264;24.536;2022-10-17T14:01:42;100773.94;;;17.37;52.24
39793;BME280;26080;42.264;24.536;2022-10-17T14:04:08;100772.16;;;17.38;53.69
39793;BME280;26080;42.264;24.536;2022-10-17T14:06:40;100776.66;;;17.36;53.81
39793;BME280;26080;42.264;24.536;2022-10-17T14:09:16;100773.34;;;17.32;52.74
39793;BME280;26080;42.264;24.536;2022-10-17T14:11:59;100775.22;;;17.30;52.63
39793;BME280;26080;42.264;24.536;2022-10-17T14:14:26;100775.28;;;17.29;52.45
39793;BME280;26080;42.264;24.536;2022-10-17T14:16:53;100774.56;;;17.25;54.58
39793;BME280;26080;42.264;24.536;2022-10-17T14:19:30;100743.84;;;17.05;53.29
39793;BME280;26080;42.264;24.536;2022-10-17T14:24:45;100773.72;;;17.07;52.60
39793;BME280;26080;42.264;24.536;2022-10-17T14:27:35;100774.84;;;17.03;52.77
39793;BME280;26080;42.264;24.536;2022-10-17T14:32:54;100776.78;;;17.00;54.28
39793;BME280;26080;42.264;24.536;2022-10-17T14:35:21;100776.47;;;16.88;55.03
39793;BME280;26080;42.264;24.536;2022-10-17T14:37:48;100774.09;;;16.82;54.76
39793;BME280;26080;42.264;24.536;2022-10-17T14:40:25;100782.97;;;16.81;54.51
39793;BME280;26080;42.264;24.536;2022-10-17T14:42:53;100771.28;;;16.68;54.86
39793;BME280;26080;42.264;24.536;2022-10-17T14:45:25;100782.63;;;16.70;56.32